Time;durP1;ratioP1;P1;durP2;ratioP2;P2;SDS_P1;SDS_P2;PMS_P1;PMS_P2;Temp;Humidity;BMP_temperature;BMP_pressure;BME280_temperature;BME280_humidity;BME280_pressure;Samples;Min_cycle;Max_cycle;Signal;HPM_P1;HPM_P2
2021/12/22 09:55:35;;;;;;;4.07;2.67;;;;;;;-5.32;96.89;99987.22;5106227;28;20613;-77
2021/12/22 09:58:05;;;;;;;4.50;3.67;;;;;;;-4.68;98.77;99975.41;5105487;28;39035;-79
2021/12/22 10:00:35;;;;;;;9.53;4.53;;;;;;;-4.06;98.61;99969.47;5105304;28;40299;-80
2021/12/22 10:03:04;;;;;;;5.03;4.33;;;;;;;-3.32;96.88;99973.81;5088359;28;41501;-81
2021/12/22 10:05:32;;;;;;;5.40;3.63;;;;;;;-2.55;93.83;99973.69;5088378;28;40786;-82
2021/12/22 10:08:08;;;;;;;8.13;4.27;;;;;;;-2.08;90.77;99974.00;5088805;28;38989;-79
2021/12/22 10:10:39;;;;;;;8.20;4.13;;;;;;;-1.39;88.96;99980.41;5089433;28;41504;-82
2021/12/22 10:13:10;;;;;;;10.40;5.03;;;;;;;0.34;84.09;99967.41;5105885;28;41870;-81
2021/12/22 10:15:38;;;;;;;7.07;4.20;;;;;;;1.87;78.03;99987.25;5106576;28;42530;-80
2021/12/22 10:18:10;;;;;;;7.27;4.23;;;;;;;2.75;74.08;99995.00;5088515;28;39641;-80
2021/12/22 10:20:39;;;;;;;10.83;6.40;;;;;;;3.50;71.09;99988.69;5087764;28;42923;-80
2021/12/22 10:23:23;;;;;;;9.43;5.17;;;;;;;4.17;68.74;99974.44;5069081;28;41471;-80
2021/12/22 10:25:54;;;;;;;8.43;5.80;;;;;;;4.80;66.37;99977.53;5086903;28;43489;-80
2021/12/22 10:28:24;;;;;;;8.50;4.77;;;;;;;4.70;65.69;99992.56;5106432;28;39494;-83
2021/12/22 10:30:55;;;;;;;6.67;4.33;;;;;;;3.84;68.23;99962.78;5106481;28;41918;-83
2021/12/22 10:33:25;;;;;;;8.40;5.10;;;;;;;3.85;68.05;99968.00;5105759;28;42935;-82
2021/12/22 10:35:56;;;;;;;7.17;5.03;;;;;;;4.56;67.01;99970.16;5089906;28;41061;-83
2021/12/22 10:38:27;;;;;;;6.67;5.20;;;;;;;6.14;66.41;99955.91;5089746;28;38362;-82
2021/12/22 10:40:57;;;;;;;5.93;4.30;;;;;;;7.68;63.60;99964.44;5090456;28;40404;-87
2021/12/22 10:43:28;;;;;;;10.57;5.57;;;;;;;9.38;59.51;99981.16;5088535;28;41868;-82
2021/12/22 10:45:59;;;;;;;10.63;5.37;;;;;;;10.73;55.57;99996.59;5089260;28;41173;-79
2021/12/22 10:51:19;;;;;;;7.33;5.23;;;;;;;12.95;46.96;100015.66;5104750;28;42495;-80
2021/12/22 10:53:51;;;;;;;7.27;5.23;;;;;;;12.84;44.47;99978.16;5106121;28;42586;-79
2021/12/22 10:56:27;;;;;;;5.67;4.40;;;;;;;12.46;43.90;100014.72;5087778;28;40978;-79
2021/12/22 10:59:04;;;;;;;6.10;4.87;;;;;;;11.88;45.62;99979.63;5088445;28;38684;-79
2021/12/22 11:01:37;;;;;;;6.47;5.27;;;;;;;11.65;46.30;99996.66;5098377;28;41767;-78
2021/12/22 11:04:14;;;;;;;6.77;5.17;;;;;;;11.08;46.50;100003.78;5089054;28;41632;-80
2021/12/22 11:06:42;;;;;;;6.03;4.60;;;;;;;10.35;48.08;99985.91;5093709;28;41434;-78
2021/12/22 11:09:13;;;;;;;9.97;5.30;;;;;;;9.45;49.48;99962.31;5096916;28;40091;-85
2021/12/22 11:11:45;;;;;;;7.23;4.80;;;;;;;8.64;51.75;99948.78;5093187;28;40642;-86
2021/12/22 11:14:17;;;;;;;7.53;5.87;;;;;;;8.32;51.87;99956.97;5110657;27;43030;-82
2021/12/22 11:16:57;;;;;;;8.20;5.93;;;;;;;9.12;48.60;99976.88;5083038;28;41432;-83
2021/12/22 11:19:27;;;;;;;9.03;5.17;;;;;;;9.19;47.18;99983.63;5074664;28;39749;-80
2021/12/22 11:22:05;;;;;;;7.23;4.77;;;;;;;8.88;47.08;99974.25;5071627;28;41694;-81
2021/12/22 11:24:35;;;;;;;6.93;4.47;;;;;;;9.51;46.84;99980.59;5072509;28;43855;-82
2021/12/22 11:27:05;;;;;;;7.10;4.67;;;;;;;11.06;44.25;100004.78;5083867;28;42143;-84
2021/12/22 11:29:35;;;;;;;4.87;4.37;;;;;;;12.06;41.79;100001.75;5071907;28;38806;-84
2021/12/22 11:32:05;;;;;;;6.63;4.57;;;;;;;12.42;40.83;100029.09;5074938;28;42090;-81
2021/12/22 11:34:39;;;;;;;5.27;4.37;;;;;;;13.02;39.14;100024.13;5091738;28;42651;-82
2021/12/22 11:37:10;;;;;;;7.00;5.30;;;;;;;12.05;40.40;100021.25;5091372;28;41223;-82
2021/12/22 11:39:39;;;;;;;5.17;4.63;;;;;;;10.72;42.44;100005.47;5070832;28;39683;-83
2021/12/22 11:42:12;;;;;;;5.90;4.37;;;;;;;9.89;44.10;99988.75;5088355;28;42066;-83
2021/12/22 11:44:40;;;;;;;6.73;5.40;;;;;;;9.64;44.75;99971.22;5070867;28;41824;-84
2021/12/22 11:47:10;;;;;;;7.17;4.70;;;;;;;10.06;43.12;99971.22;5074153;28;42395;-84
2021/12/22 11:49:51;;;;;;;6.67;4.90;;;;;;;10.28;42.66;99983.56;5073628;28;39271;-84
2021/12/22 11:52:32;;;;;;;9.17;5.20;;;;;;;10.74;41.66;99993.03;5072094;28;41768;-84
2021/12/22 11:55:18;;;;;;;9.03;5.37;;;;;;;10.39;42.40;99950.41;5070152;28;42035;-84
2021/12/22 11:57:50;;;;;;;7.30;4.73;;;;;;;10.50;42.73;99981.72;5071773;28;41264;-83
2021/12/22 12:00:29;;;;;;;5.70;4.37;;;;;;;11.75;40.45;99976.72;5074400;28;38753;-84
2021/12/22 12:02:58;;;;;;;5.97;4.63;;;;;;;12.69;38.98;99968.31;5090717;28;41829;-86
2021/12/22 12:05:28;;;;;;;6.43;4.83;;;;;;;12.40;38.23;99976.97;5092034;28;42853;-85
2021/12/22 12:08:07;;;;;;;5.33;4.43;;;;;;;11.48;39.33;99970.09;5072835;28;41451;-84
2021/12/22 12:10:44;;;;;;;6.97;5.00;;;;;;;10.92;41.32;99954.19;5074161;28;38717;-85
2021/12/22 12:13:38;;;;;;;6.40;4.30;;;;;;;10.83;42.00;99944.88;5072723;28;40536;-83
2021/12/22 12:22:18;;;;;;;7.90;5.10;;;;;;;14.80;35.52;99968.53;5073256;28;39371;-84
2021/12/22 12:24:49;;;;;;;6.60;4.43;;;;;;;15.28;34.49;99985.09;5074125;28;40441;-90
2021/12/22 12:27:41;;;;;;;7.73;5.43;;;;;;;15.56;34.53;99979.72;5068485;28;43024;-86
2021/12/22 12:30:14;;;;;;;5.97;5.10;;;;;;;16.34;34.03;99977.16;5054059;28;41382;-89
2021/12/22 12:33:03;;;;;;;6.57;5.20;;;;;;;17.12;31.71;99985.97;5071068;28;39068;-86
2021/12/22 12:35:54;;;;;;;5.97;4.77;;;;;;;17.54;30.97;99976.66;5073418;28;41754;-87
2021/12/22 12:38:25;;;;;;;6.50;4.73;;;;;;;17.60;31.45;99986.91;5072944;28;41838;-87
2021/12/22 12:41:23;;;;;;;5.93;4.93;;;;;;;17.70;31.03;99976.38;5090339;28;41057;-85
2021/12/22 12:44:09;;;;;;;5.40;4.53;;;;;;;17.37;31.05;99964.47;5073655;28;40531;-86
2021/12/22 12:46:52;;;;;;;5.77;4.50;;;;;;;17.03;31.37;99965.22;5089876;28;41638;-89
2021/12/22 12:49:34;;;;;;;6.77;4.60;;;;;;;17.06;31.25;99957.78;5074342;28;41708;-88
2021/12/22 12:52:07;;;;;;;6.67;4.63;;;;;;;16.78;31.70;99958.94;5056296;28;42292;-88
2021/12/22 12:54:40;;;;;;;5.40;4.17;;;;;;;16.40;31.40;99942.00;5073442;28;39066;-90
2021/12/22 12:57:28;;;;;;;6.03;4.90;;;;;;;16.33;31.94;99946.88;5073431;28;43051;-87
2021/12/22 13:00:06;;;;;;;4.90;4.37;;;;;;;15.68;32.95;99936.19;5073371;28;41638;-87
2021/12/22 13:02:37;;;;;;;8.23;5.17;;;;;;;15.05;33.34;99923.38;5073103;28;40931;-90
2021/12/22 13:05:12;;;;;;;5.10;4.57;;;;;;;14.90;33.76;99937.66;5073625;28;38660;-84
2021/12/22 13:07:41;;;;;;;6.37;4.83;;;;;;;14.22;33.67;99923.22;5089730;28;40816;-85
2021/12/22 13:10:15;;;;;;;6.87;5.50;;;;;;;13.50;35.22;99931.94;5089900;28;43202;-85
2021/12/22 13:13:01;;;;;;;5.70;4.40;;;;;;;12.49;36.13;99913.56;5073510;28;41401;-85
2021/12/22 13:15:46;;;;;;;6.80;4.43;;;;;;;11.42;37.73;99906.72;5073468;28;40589;-88
2021/12/22 13:18:26;;;;;;;6.13;4.47;;;;;;;10.49;39.27;99897.91;5073125;28;41647;-90
2021/12/22 13:20:56;;;;;;;6.47;4.80;;;;;;;9.92;40.41;99904.78;5085533;28;43194;-89
2021/12/22 13:23:30;;;;;;;7.33;4.73;;;;;;;9.32;41.26;99905.59;5072745;28;41380;-87
2021/12/22 13:25:58;;;;;;;7.73;4.77;;;;;;;8.75;42.11;99899.03;5068759;28;38894;-87
2021/12/22 13:28:27;;;;;;;7.73;4.60;;;;;;;8.13;42.94;99867.03;5052364;28;40820;-88
2021/12/22 13:30:57;;;;;;;6.53;4.30;;;;;;;7.75;44.00;99876.31;5088695;28;41805;-89
2021/12/22 13:33:34;;;;;;;6.30;4.43;;;;;;;7.19;44.95;99840.41;5073459;28;40922;-91
2021/12/22 13:36:04;;;;;;;8.03;4.30;;;;;;;6.93;45.65;99837.75;5071894;28;40129;-88
2021/12/22 13:38:35;;;;;;;8.47;4.67;;;;;;;6.69;46.46;99838.53;5072696;28;41118;-85
2021/12/22 13:41:05;;;;;;;6.17;4.13;;;;;;;6.53;47.02;99851.31;5073532;28;41710;-88
2021/12/22 13:43:35;;;;;;;7.13;4.13;;;;;;;6.33;47.06;99851.03;5073720;28;42098;-88
2021/12/22 13:46:15;;;;;;;6.07;4.67;;;;;;;6.05;48.13;99825.56;5073208;28;39165;-88
2021/12/22 13:48:48;;;;;;;7.27;3.93;;;;;;;5.96;48.35;99831.06;5089633;28;41723;-87
2021/12/22 13:51:19;;;;;;;7.50;3.80;;;;;;;5.71;48.77;99819.47;5072440;28;42097;-91
2021/12/22 13:53:52;;;;;;;6.33;4.43;;;;;;;5.61;48.85;99812.75;5072227;28;42125;-91
2021/12/22 13:56:21;;;;;;;5.27;3.80;;;;;;;5.54;49.62;99816.44;5073340;28;39084;-88
2021/12/22 13:58:50;;;;;;;5.93;3.73;;;;;;;5.26;49.74;99797.91;5073380;28;40844;-89
2021/12/22 14:01:35;;;;;;;7.90;4.13;;;;;;;5.11;50.19;99779.94;5068547;28;44245;-92
2021/12/22 14:04:10;;;;;;;5.70;3.53;;;;;;;4.97;50.82;99785.53;5052505;28;41105;-86
2021/12/22 14:06:40;;;;;;;6.80;3.83;;;;;;;4.83;51.15;99782.38;5061115;28;39995;-87
2021/12/22 14:09:11;;;;;;;6.47;3.57;;;;;;;4.72;51.56;99776.53;5064678;28;40598;-87
2021/12/22 14:11:41;;;;;;;6.57;3.60;;;;;;;4.74;51.91;99788.72;5068987;28;41743;-90
2021/12/22 14:14:25;;;;;;;5.87;3.90;;;;;;;4.58;52.65;99776.84;5075328;28;41746;-89
2021/12/22 14:16:56;;;;;;;5.60;3.60;;;;;;;4.37;53.24;99754.63;5071653;28;38623;-86
2021/12/22 14:19:25;;;;;;;4.30;3.47;;;;;;;4.35;53.26;99756.41;5075293;28;41587;-89
2021/12/22 14:22:02;;;;;;;4.67;3.33;;;;;;;4.35;53.26;99766.88;5073180;28;41886;-88
2021/12/22 14:24:32;;;;;;;6.13;4.10;;;;;;;4.21;53.68;99747.97;5071801;28;41397;-91
2021/12/22 14:27:01;;;;;;;5.00;3.60;;;;;;;3.94;53.68;99718.91;5072982;28;39009;-94
2021/12/22 14:29:31;;;;;;;5.83;3.80;;;;;;;3.77;53.84;99700.03;5072382;28;40483;-92
2021/12/22 14:32:02;;;;;;;6.10;3.80;;;;;;;3.96;54.33;99751.16;5071254;28;41730;-85
2021/12/22 14:34:32;;;;;;;5.30;3.53;;;;;;;3.86;54.78;99760.09;5071290;28;41207;-84
2021/12/22 14:37:02;;;;;;;5.17;3.70;;;;;;;3.66;55.39;99757.03;5071336;28;40298;-84
2021/12/22 14:39:45;;;;;;;5.10;3.97;;;;;;;3.62;55.52;99765.84;5070796;28;40701;-82
2021/12/22 14:42:25;;;;;;;9.67;4.13;;;;;;;3.48;55.25;99766.09;5074060;28;41666;-83
2021/12/22 14:44:54;;;;;;;6.80;4.87;;;;;;;3.40;56.31;99756.69;5091569;28;42333;-83
2021/12/22 14:47:23;;;;;;;5.10;3.33;;;;;;;3.14;56.86;99726.63;5074741;28;40122;-88
2021/12/22 14:49:53;;;;;;;5.83;4.03;;;;;;;3.08;57.67;99734.59;5070832;28;40729;-89
2021/12/22 14:52:22;;;;;;;4.47;3.47;;;;;;;2.75;57.60;99694.19;5073704;28;41851;-86
2021/12/22 14:54:55;;;;;;;5.37;3.53;;;;;;;2.88;58.22;99731.47;5090639;28;42341;-85
2021/12/22 14:57:23;;;;;;;8.93;4.27;;;;;;;2.85;57.84;99742.84;5072643;28;39191;-84
2021/12/22 14:59:51;;;;;;;6.23;3.57;;;;;;;2.66;58.26;99719.66;5074132;28;40992;-85
2021/12/22 15:02:19;;;;;;;8.43;4.43;;;;;;;2.56;58.23;99718.09;5073795;28;42908;-88
2021/12/22 15:04:47;;;;;;;5.63;4.10;;;;;;;2.41;57.97;99712.22;5074327;28;41287;-86
2021/12/22 15:07:16;;;;;;;5.63;3.67;;;;;;;2.31;58.40;99712.38;5095169;28;39413;-87
2021/12/22 15:09:44;;;;;;;6.90;3.73;;;;;;;2.21;58.75;99711.66;5073826;28;41667;-85
2021/12/22 15:12:12;;;;;;;5.53;3.53;;;;;;;2.16;58.55;99718.69;5091035;28;42494;-86
2021/12/22 15:14:39;;;;;;;6.67;4.27;;;;;;;2.09;58.66;99717.94;5074065;28;41418;-89
2021/12/22 15:17:07;;;;;;;5.90;4.40;;;;;;;2.02;59.02;99710.19;5074115;28;38966;-88
2021/12/22 15:19:35;;;;;;;6.10;4.03;;;;;;;1.82;59.57;99686.13;5075556;28;40647;-86
2021/12/22 15:22:03;;;;;;;6.03;3.37;;;;;;;1.77;59.50;99702.69;5074036;28;43014;-82
2021/12/22 15:24:32;;;;;;;5.57;4.07;;;;;;;1.62;58.95;99708.13;5089558;28;42439;-83
2021/12/22 15:27:00;;;;;;;9.10;5.00;;;;;;;1.55;59.21;99706.47;5075842;28;40193;-90
2021/12/22 15:29:28;;;;;;;7.50;3.83;;;;;;;1.43;59.44;99694.44;5076915;28;41427;-88
2021/12/22 15:31:55;;;;;;;4.80;3.97;;;;;;;1.35;59.56;99705.88;5075491;28;42150;-91
2021/12/22 15:34:24;;;;;;;7.03;4.23;;;;;;;1.16;59.99;99699.13;5074013;28;42443;-88
2021/12/22 15:36:54;;;;;;;8.27;4.47;;;;;;;1.12;59.78;99707.84;5073753;28;39098;-87
2021/12/22 15:39:22;;;;;;;5.93;3.90;;;;;;;1.14;60.38;99716.53;5074208;28;41615;-85
2021/12/22 15:41:51;;;;;;;10.47;3.97;;;;;;;0.99;60.13;99712.34;5073862;28;41709;-88
2021/12/22 15:44:19;;;;;;;7.00;3.83;;;;;;;0.93;60.30;99715.88;5074364;28;41055;-89
2021/12/22 15:46:47;;;;;;;7.00;4.53;;;;;;;0.87;60.56;99712.44;5074201;28;39813;-88
2021/12/22 15:49:17;;;;;;;6.50;4.20;;;;;;;0.74;60.47;99716.09;5072517;28;40452;-92
2021/12/22 15:51:45;;;;;;;7.33;4.67;;;;;;;0.48;60.72;99677.22;5075149;28;41825;-90
2021/12/22 15:54:14;;;;;;;7.67;3.23;;;;;;;0.46;60.91;99684.19;5073599;28;42335;-92
2021/12/22 15:56:42;;;;;;;5.47;4.53;;;;;;;0.40;61.13;99665.97;5074359;28;39753;-90
2021/12/22 15:59:11;;;;;;;6.93;4.83;;;;;;;0.52;61.45;99689.31;5073532;28;41884;-91
2021/12/22 16:01:39;;;;;;;10.23;5.57;;;;;;;0.29;61.69;99655.66;5074638;28;42895;-86
2021/12/22 16:04:07;;;;;;;8.23;4.40;;;;;;;0.44;61.34;99701.56;5074300;28;41390;-88
2021/12/22 16:06:35;;;;;;;6.30;3.73;;;;;;;0.34;61.54;99692.97;5074255;28;39045;-85
2021/12/22 16:09:03;;;;;;;8.17;4.23;;;;;;;0.01;63.32;99634.16;5073856;28;41829;-88
2021/12/22 16:11:32;;;;;;;7.33;4.90;;;;;;;0.31;63.66;99675.63;5073717;28;41893;-85
2021/12/22 16:14:03;;;;;;;6.53;4.13;;;;;;;0.37;64.10;99687.75;5088965;28;42220;-84
2021/12/22 16:16:37;;;;;;;10.00;5.07;;;;;;;0.29;63.79;99687.78;5073196;28;38916;-84
2021/12/22 16:19:08;;;;;;;5.37;4.07;;;;;;;0.31;63.85;99686.03;5057295;28;42235;-84
2021/12/22 16:21:36;;;;;;;12.03;4.87;;;;;;;0.05;64.55;99643.69;5057384;28;42901;-85
